• Join FlightAware (Why Join?)
  • Login
  • US Flag 
06:35PM EDT


 

Airport Tracker/Info


-or-


 

Live Flight TrackerFlight Track Log ✈ N860BA ✈ 11-May-2013 ✈ KMSY - KAPF

Flight Track Log - Related Links

Times and Time Zones

All times are in EDT time to prevent confusion due to time zone crossing. See the N860BA flight status page for this flight to view local times or setup timezone preferences in your user account.

Time Position Orientation Groundspeed Altitude Reporting Facility
EDT Latitude Longitude Course Direction KTS MPH feet Rate Location/Type
08:55AM 30.0050 -90.2456 11° North 152 175 400  Level Houston Center
08:56AM 30.0314 -90.2394 11° North 172 198 1,300 2,100 Climbing Houston Center
08:57AM 30.0847 -90.2286 10° North 188 216 3,900 2,580 Climbing Houston Center
08:58AM 30.1419 -90.1981 25° Northeast 217 250 6,700 2,640 Climbing Houston Center
08:59AM 30.1978 -90.1608 30° Northeast 229 264 9,300 2,280 Climbing Houston Center
09:00AM 30.2436 -90.0978 50° Northeast 271 312 11,400 2,160 Climbing Houston Center
09:01AM 30.2714 -89.9844 74° East 306 352 13,800 1,980 Climbing Houston Center
09:02AM 30.3000 -89.8814 72° East 333 383 15,500 1,560 Climbing Houston Center
09:03AM 30.3286 -89.7803 72° East 362 417 17,000 1,380 Climbing Houston Center
09:04AM 30.3647 -89.6597 71° East 386 444 18,400 1,500 Climbing Houston Center
09:05AM 30.3997 -89.5386 71° East 395 455 20,100 1,800 Climbing Houston Center
09:06AM 30.4217 -89.3867 80° East 403 464 22,100 1,740 Climbing Houston Center
09:07AM 30.4267 -89.2569 87° East 405 466 23,700 1,500 Climbing Houston Center
09:08AM 30.4317 -89.1269 87° East 404 465 25,200 1,380 Climbing Houston Center
09:09AM 30.4372 -88.9989 87° East 399 459 26,600 1,020 Climbing Houston Center
09:10AM 30.4436 -88.8706 87° East 406 467 27,300 600 Climbing Houston Center
09:11AM 30.4486 -88.7317 88° East 429 494 27,900 600 Climbing Houston Center
09:12AM 30.4544 -88.5883 87° East 445 512 28,600 600 Climbing Houston Center
09:13AM 30.4594 -88.4406 88° East 460 529 29,200 660 Climbing Houston Center
09:14AM 30.4681 -88.2600 87° East 471 542 30,000 720 Climbing Houston Center
09:16AM 30.4728 -88.1094 88° East 473 544 30,700 660 Climbing Houston Center
09:17AM 30.4792 -87.9556 87° East 480 552 31,400 660 Climbing Houston Center
09:18AM 30.4833 -87.8014 88° East 483 556 32,100 660 Climbing Houston Center
09:19AM 30.4889 -87.6458 88° East 486 559 32,800 660 Climbing Jacksonville Center
09:20AM 30.4947 -87.4872 88° East 486 559 33,500 720 Climbing Jacksonville Center
09:21AM 30.5003 -87.3283 88° East 491 565 34,300 720 Climbing Jacksonville Center
09:22AM 30.5039 -87.1669 88° East 496 571 35,000 660 Climbing Jacksonville Center
09:23AM 30.5092 -87.0033 88° East 496 571 35,700 600 Climbing Jacksonville Center
09:24AM 30.5164 -86.8422 87° East 496 571 36,300 600 Climbing Jacksonville Center
09:25AM 30.5192 -86.6783 89° East 496 571 37,000 300 Climbing Jacksonville Center
09:26AM 30.5219 -86.5144 89° East 496 571 37,000  Level Jacksonville Center
09:27AM 30.5244 -86.3458 89° East 501 577 37,000  Level Jacksonville Center
09:28AM 30.5311 -86.1747 87° East 517 595 37,000  Level Jacksonville Center
09:29AM 30.5333 -86.0011 89° East 528 608 37,000  Level Jacksonville Center
09:30AM 30.5375 -85.8300 88° East 533 613 37,000  Level Jacksonville Center
09:31AM 30.5308 -85.6564 93° East 533 613 37,000  Level Jacksonville Center
09:32AM 30.4631 -85.5122 119° Southeast 504 580 37,000  Level Jacksonville Center
09:33AM 30.3758 -85.3822 128° Southeast 495 570 37,000  Level Jacksonville Center
09:34AM 30.2844 -85.2522 129° Southeast 511 588 37,000  Level Jacksonville Center
09:35AM 30.1889 -85.1106 128° Southeast 511 588 37,000  Level Jacksonville Center
09:36AM 30.1011 -84.9861 129° Southeast 516 594 37,000  Level Jacksonville Center
09:37AM 30.0114 -84.8569 129° Southeast 516 594 37,000  Level Jacksonville Center
09:38AM 29.9275 -84.7308 127° Southeast 511 588 37,000  Level Jacksonville Center
09:39AM 29.8397 -84.6022 128° Southeast 511 588 37,000  Level Jacksonville Center
09:40AM 29.7494 -84.4761 129° Southeast 511 588 37,000  Level Jacksonville Center
09:41AM 29.6692 -84.3650 130° Southeast 502 578 37,000  Level Jacksonville Center
09:42AM 29.5808 -84.2394 129° Southeast 507 583 37,000  Level Jacksonville Center
09:43AM 29.4944 -84.1142 128° Southeast 507 583 37,000  Level Jacksonville Center
09:44AM 29.3744 -84.0056 142° Southeast 493 567 37,000  Level Jacksonville Center
09:45AM 29.2539 -83.9350 153° Southeast 493 567 37,000  Level Jacksonville Center
09:46AM 29.1333 -83.8650 153° Southeast 487 560 37,000  Level Jacksonville Center
09:47AM 29.0128 -83.7947 153° Southeast 481 554 37,000  Level Jacksonville Center
09:48AM 28.8944 -83.7225 152° Southeast 486 559 37,000  Level Jacksonville Center
09:49AM 28.6803 -83.5978 153° Southeast 483 556 37,000 -120 Level Miami Center
09:50AM 28.5586 -83.5269 153° Southeast 483 556 36,800 -480 Descending Miami Center
09:51AM 28.4367 -83.4581 154° Southeast 483 556 36,100 -840 Descending Miami Center
09:52AM 28.3106 -83.3872 154° Southeast 494 568 35,200 -600 Descending Miami Center
09:53AM 28.1669 -83.3342 162° South 500 575 34,900 -840 Descending Miami Center
09:54AM 28.0414 -83.2517 150° Southeast 506 582 33,600 -2,040 Descending Miami Center
09:55AM 27.9200 -83.1722 150° Southeast 511 588 30,900 -2,400 Descending Miami Center
09:56AM 27.8042 -83.0978 150° Southeast 499 574 28,800 -2,040 Descending Miami Center
09:57AM 27.6906 -83.0281 151° Southeast 482 555 26,900 -1,860 Descending Miami Center
09:58AM 27.5828 -82.9614 151° Southeast 462 532 25,100 -1,800 Descending Miami Center
09:59AM 27.4831 -82.8978 150° Southeast 436 502 23,400 -1,800 Descending Miami Center
10:00AM 27.3794 -82.8339 151° Southeast 423 487 21,600 -1,800 Descending Miami Center
10:01AM 27.2819 -82.7728 151° Southeast 412 474 19,900 -1,740 Descending Miami Center
10:02AM 27.1842 -82.7117 151° Southeast 405 466 18,200 -1,680 Descending Miami Center
10:03AM 27.0803 -82.6483 152° Southeast 405 466 16,600 -1,680 Descending Miami Center
10:04AM 26.9744 -82.5825 151° Southeast 418 481 14,900 -1,920 Descending Miami Center
10:05AM 26.8664 -82.5167 151° Southeast 430 495 12,800 -1,860 Descending Miami Center
10:06AM 26.7683 -82.4583 152° Southeast 422 486 11,200 -1,380 Descending Miami Center
10:07AM 26.6847 -82.4081 152° Southeast 384 442 10,100 -1,140 Descending Miami Center
10:08AM 26.6117 -82.3581 149° Southeast 339 390 9,000 -1,200 Descending Miami Center
10:09AM 26.5444 -82.3086 147° Southeast 304 350 7,800 -1,380 Descending Miami Center
10:10AM 26.4775 -82.2592 147° Southeast 288 331 6,300 -1,440 Descending Miami Center
10:11AM 26.4208 -82.2100 142° Southeast 283 326 5,000 -720 Descending Miami Center
10:12AM 26.3792 -82.1550 130° Southeast 255 293 4,900 -60 Descending Miami Center
10:13AM 26.3169 -82.1406 168° South 221 254 4,900  Level Miami Center
10:15AM 26.2168 -82.0601 144° Southeast  Level FlightAware Approximate
10:22AM 26.1524 -81.7756 66° East  Level Estimated
10:23AM 26.1524 -81.7756 66° East  Level Estimated
10:24AM 26.1524 -81.7756 66° East  Level Estimated
10:25AM 26.1524 -81.7756 66° East  Level Estimated
10:26AM 26.1524 -81.7756 66° East  Level Estimated
10:27AM 26.1524 -81.7756 66° East  Level Estimated
10:28AM 26.1524 -81.7756 66° East  Level Estimated
10:29AM 26.1524 -81.7756 66° East  Level Estimated
10:30AM 26.1524 -81.7756 66° East  Level Estimated
10:31AM 26.1524 -81.7756 66° East  Level Estimated
10:32AM 26.1524 -81.7756 66° East  Level Estimated